Time;durP1;ratioP1;P1;durP2;ratioP2;P2;SDS_P1;SDS_P2;PMS_P1;PMS_P2;Temp;Humidity;BMP_temperature;BMP_pressure;BME280_temperature;BME280_humidity;BME280_pressure;Samples;Min_cycle;Max_cycle;Signal;HPM_P1;HPM_P2
2020/12/21 00:01:54;;;;;;;7.22;5.63;;;5.10;99.90;;;;;;4996318;28;20204;-76
2020/12/21 00:04:21;;;;;;;10.07;5.30;;;5.10;99.90;;;;;;5013861;28;20575;-76
2020/12/21 00:06:52;;;;;;;8.55;5.80;;;5.20;99.90;;;;;;5013952;28;20193;-76
2020/12/21 00:09:21;;;;;;;6.45;5.13;;;5.20;99.90;;;;;;5014230;28;20179;-77
2020/12/21 00:11:49;;;;;;;9.05;7.13;;;5.20;99.90;;;;;;5013909;28;20685;-76
2020/12/21 00:14:17;;;;;;;6.88;5.18;;;5.20;99.90;;;;;;5013689;28;20572;-75
2020/12/21 00:16:45;;;;;;;13.10;6.80;;;5.20;99.90;;;;;;5013438;28;20221;-78
2020/12/21 00:19:13;;;;;;;9.82;6.35;;;5.10;99.90;;;;;;5016045;28;20175;-76
2020/12/21 00:21:41;;;;;;;8.07;6.63;;;5.00;99.90;;;;;;5033519;28;20608;-77
2020/12/21 00:24:09;;;;;;;14.55;6.43;;;4.90;99.90;;;;;;5033155;28;20682;-76
2020/12/21 00:26:37;;;;;;;11.20;6.63;;;4.90;99.90;;;;;;5033432;28;20577;-76
2020/12/21 00:29:05;;;;;;;10.18;7.35;;;4.90;99.90;;;;;;5033629;28;20542;-78
2020/12/21 00:31:33;;;;;;;7.30;5.75;;;4.80;99.90;;;;;;5015967;28;20665;-77
2020/12/21 00:34:03;;;;;;;8.10;6.35;;;4.80;99.90;;;;;;5039970;28;20197;-76
2020/12/21 00:36:32;;;;;;;5.13;4.10;;;4.90;99.90;;;;;;5024853;28;20199;-76
2020/12/21 00:39:00;;;;;;;8.25;6.05;;;4.90;99.90;;;;;;5035897;28;20212;-77
2020/12/21 00:41:27;;;;;;;8.13;6.10;;;5.00;99.90;;;;;;5036692;28;20221;-77
2020/12/21 00:43:56;;;;;;;10.00;7.95;;;5.00;99.90;;;;;;5033897;28;20308;-77
2020/12/21 00:46:26;;;;;;;11.18;8.82;;;5.00;99.90;;;;;;5033808;28;20190;-77
2020/12/21 00:48:57;;;;;;;9.82;7.90;;;5.00;99.90;;;;;;5033470;28;20542;-77
2020/12/21 00:51:25;;;;;;;14.45;6.88;;;5.00;99.90;;;;;;5036533;28;20189;-77
2020/12/21 00:59:41;;;;;;;9.43;6.40;;;5.00;99.90;;;;;;5038000;28;20175;-76
2020/12/21 01:02:09;;;;;;;11.73;7.25;;;5.00;99.90;;;;;;5014179;23;20234;-74
2020/12/21 01:04:36;;;;;;;9.40;5.75;;;5.00;99.90;;;;;;4978234;28;20298;-74
2020/12/21 01:07:05;;;;;;;8.13;5.80;;;5.00;99.90;;;;;;4978744;28;20199;-73
2020/12/21 01:09:32;;;;;;;9.18;5.72;;;5.00;99.90;;;;;;4978607;28;20184;-73
2020/12/21 01:11:59;;;;;;;12.32;7.85;;;5.00;99.90;;;;;;4960850;28;20196;-73
2020/12/21 01:14:27;;;;;;;12.05;6.75;;;5.00;99.90;;;;;;4977518;28;20207;-74
2020/12/21 01:16:54;;;;;;;9.95;5.57;;;5.00;99.90;;;;;;4977989;28;20628;-73
2020/12/21 01:19:22;;;;;;;7.35;6.65;;;4.90;99.90;;;;;;4978011;28;20191;-73
2020/12/21 01:21:49;;;;;;;9.65;7.50;;;4.90;99.90;;;;;;4960200;28;20572;-73
2020/12/21 01:24:16;;;;;;;10.60;6.43;;;4.90;99.90;;;;;;4977427;28;20226;-74
2020/12/21 01:26:43;;;;;;;8.07;7.15;;;4.80;99.90;;;;;;4977844;28;20191;-74
2020/12/21 01:29:10;;;;;;;8.88;6.45;;;4.80;99.90;;;;;;4960249;28;20200;-73
2020/12/21 01:31:38;;;;;;;17.05;6.40;;;4.80;99.90;;;;;;4977769;28;20202;-74
2020/12/21 01:34:12;;;;;;;8.32;5.70;;;4.80;99.90;;;;;;4977552;28;20203;-73
2020/12/21 01:36:42;;;;;;;6.65;5.80;;;4.80;99.90;;;;;;4978188;28;20792;-73
2020/12/21 01:39:09;;;;;;;7.53;5.28;;;4.80;99.90;;;;;;4977813;28;20214;-73
2020/12/21 01:41:36;;;;;;;9.68;6.03;;;4.90;99.90;;;;;;4978268;28;20171;-73
2020/12/21 01:44:04;;;;;;;6.93;6.20;;;4.80;99.90;;;;;;4977787;28;20626;-73
2020/12/21 01:46:31;;;;;;;11.50;8.20;;;4.90;99.90;;;;;;4978659;28;20242;-74
2020/12/21 01:48:59;;;;;;;18.05;9.35;;;4.90;99.90;;;;;;4960493;28;20745;-74
2020/12/21 01:51:28;;;;;;;16.20;7.95;;;5.00;99.90;;;;;;4959972;28;20195;-74
2020/12/21 01:53:57;;;;;;;11.35;7.47;;;5.00;99.90;;;;;;4959744;28;20223;-74
2020/12/21 01:56:24;;;;;;;12.07;8.13;;;5.00;99.90;;;;;;4977384;28;20192;-74
2020/12/21 01:58:51;;;;;;;10.15;9.07;;;4.90;99.90;;;;;;4977115;28;20205;-73
2020/12/21 02:01:19;;;;;;;11.98;7.15;;;5.00;99.90;;;;;;4977224;28;20199;-74
2020/12/21 02:03:48;;;;;;;12.50;7.70;;;5.00;99.90;;;;;;4977162;28;20223;-73
2020/12/21 02:06:17;;;;;;;9.73;7.13;;;5.00;99.90;;;;;;4976649;28;20184;-74
2020/12/21 02:08:45;;;;;;;9.13;6.07;;;5.00;99.90;;;;;;4977118;28;20242;-73
2020/12/21 02:11:13;;;;;;;7.00;6.25;;;5.10;99.90;;;;;;4959625;28;20656;-74
2020/12/21 02:13:42;;;;;;;8.38;5.85;;;5.10;99.90;;;;;;4976891;28;20183;-74
2020/12/21 02:16:14;;;;;;;9.70;7.30;;;5.20;99.90;;;;;;4977119;28;20194;-74
2020/12/21 02:18:42;;;;;;;10.98;7.45;;;5.30;99.90;;;;;;4976999;28;20569;-74
2020/12/21 02:21:10;;;;;;;8.43;6.53;;;5.10;99.90;;;;;;4977592;28;20187;-74
2020/12/21 02:23:37;;;;;;;6.40;5.32;;;5.10;99.90;;;;;;4976806;28;20211;-72
2020/12/21 02:26:05;;;;;;;6.70;6.00;;;5.00;99.90;;;;;;4976910;28;20238;-73
2020/12/21 02:28:32;;;;;;;8.63;5.30;;;5.00;99.90;;;;;;4976845;28;20247;-73
2020/12/21 02:31:00;;;;;;;8.00;6.28;;;5.00;99.90;;;;;;4976884;28;20309;-73
2020/12/21 02:33:27;;;;;;;8.45;5.93;;;5.00;99.90;;;;;;4958975;28;20214;-74
2020/12/21 02:35:54;;;;;;;12.02;6.18;;;5.00;99.90;;;;;;4977216;28;20191;-73
2020/12/21 02:38:22;;;;;;;11.95;7.50;;;5.00;99.90;;;;;;4959906;28;20206;-73
2020/12/21 02:40:49;;;;;;;9.27;5.60;;;5.00;99.90;;;;;;4976965;28;20652;-74
2020/12/21 02:43:20;;;;;;;9.60;7.57;;;5.10;99.90;;;;;;4977313;28;20657;-74
2020/12/21 02:45:47;;;;;;;7.20;6.30;;;5.20;99.90;;;;;;4976900;28;20207;-74
2020/12/21 02:48:14;;;;;;;7.25;6.07;;;5.20;99.90;;;;;;4976462;28;20206;-73
2020/12/21 02:50:42;;;;;;;12.02;8.00;;;5.20;99.90;;;;;;4975893;28;20206;-73
2020/12/21 02:53:10;;;;;;;8.82;6.90;;;5.20;99.90;;;;;;4976127;28;20699;-73
2020/12/21 02:55:38;;;;;;;12.02;7.13;;;5.30;99.90;;;;;;4976093;28;20286;-72
2020/12/21 02:58:05;;;;;;;12.73;7.95;;;5.30;99.90;;;;;;4976149;28;20179;-74
2020/12/21 03:00:34;;;;;;;12.40;6.90;;;5.30;99.90;;;;;;4958478;28;20283;-73
2020/12/21 03:03:01;;;;;;;17.65;8.20;;;5.30;99.90;;;;;;4975765;28;20219;-73
2020/12/21 03:05:29;;;;;;;10.18;7.80;;;5.30;99.90;;;;;;4976060;28;20211;-73
2020/12/21 03:07:56;;;;;;;10.60;7.38;;;5.30;99.90;;;;;;4975626;28;20184;-73
2020/12/21 03:10:24;;;;;;;11.00;7.68;;;5.40;99.90;;;;;;4976426;28;20198;-73
2020/12/21 03:12:52;;;;;;;10.68;6.78;;;5.50;99.90;;;;;;4976023;28;20183;-73
2020/12/21 03:15:19;;;;;;;9.90;6.72;;;5.40;99.90;;;;;;4975984;28;20289;-73
2020/12/21 03:17:47;;;;;;;8.52;7.13;;;5.50;99.90;;;;;;4975491;28;20207;-73
2020/12/21 03:20:14;;;;;;;12.23;8.52;;;5.50;99.90;;;;;;4975805;28;20736;-73
2020/12/21 03:22:42;;;;;;;10.48;8.13;;;5.50;99.90;;;;;;4974698;28;20684;-75
2020/12/21 03:25:09;;;;;;;13.00;8.80;;;5.50;99.90;;;;;;4975523;28;20215;-74
2020/12/21 03:27:36;;;;;;;12.88;7.63;;;5.50;99.90;;;;;;4975770;28;20176;-73
2020/12/21 03:30:05;;;;;;;11.85;8.10;;;5.50;99.90;;;;;;4975513;28;20678;-74
2020/12/21 03:32:32;;;;;;;9.52;8.15;;;5.60;99.90;;;;;;4975854;28;20210;-73
2020/12/21 03:34:59;;;;;;;12.60;10.15;;;5.60;99.90;;;;;;4975283;28;20207;-73
2020/12/21 03:37:26;;;;;;;12.43;7.68;;;5.60;99.90;;;;;;4975086;28;20202;-74
2020/12/21 03:39:53;;;;;;;12.15;8.68;;;5.70;99.90;;;;;;4974683;28;20548;-74
2020/12/21 03:42:20;;;;;;;8.48;6.80;;;5.60;99.90;;;;;;4975096;28;20184;-74
2020/12/21 03:44:48;;;;;;;8.85;5.20;;;5.60;99.90;;;;;;4956847;28;20233;-74
2020/12/21 03:47:16;;;;;;;9.73;7.05;;;5.60;99.90;;;;;;4974154;28;20668;-74
2020/12/21 03:49:43;;;;;;;15.25;8.45;;;5.60;99.90;;;;;;4956737;28;20196;-74
2020/12/21 03:52:10;;;;;;;14.23;8.85;;;5.60;99.90;;;;;;4956791;28;20556;-74
2020/12/21 03:54:37;;;;;;;11.77;8.35;;;5.70;99.90;;;;;;4973873;28;20215;-73
2020/12/21 03:57:04;;;;;;;11.05;7.85;;;5.60;99.90;;;;;;4973759;28;20380;-73
2020/12/21 03:59:31;;;;;;;7.53;6.75;;;5.60;99.90;;;;;;4974233;28;20190;-73
2020/12/21 04:01:59;;;;;;;11.52;6.57;;;5.60;99.90;;;;;;4973747;28;20206;-73
2020/12/21 04:04:27;;;;;;;14.52;7.93;;;5.50;99.90;;;;;;4956339;28;20223;-73
2020/12/21 04:06:54;;;;;;;14.65;8.98;;;5.60;99.90;;;;;;4974153;28;20190;-73
2020/12/21 04:09:21;;;;;;;11.45;7.45;;;5.50;99.90;;;;;;4973801;28;20187;-74
2020/12/21 04:11:48;;;;;;;9.77;8.65;;;5.50;99.90;;;;;;4956122;28;20576;-74
2020/12/21 04:14:15;;;;;;;13.93;9.82;;;5.50;99.90;;;;;;4973375;28;20199;-74
2020/12/21 04:16:42;;;;;;;16.30;10.32;;;5.60;99.90;;;;;;4973847;28;20190;-74
2020/12/21 04:19:09;;;;;;;13.43;8.15;;;5.60;99.90;;;;;;4973461;28;20664;-73
2020/12/21 04:21:37;;;;;;;10.02;8.27;;;5.60;99.90;;;;;;4973480;28;20188;-73
2020/12/21 04:24:04;;;;;;;13.65;7.95;;;5.70;99.90;;;;;;4973270;28;20250;-73
2020/12/21 04:26:31;;;;;;;15.82;11.25;;;5.60;99.90;;;;;;4973474;28;20176;-73
2020/12/21 04:28:59;;;;;;;14.88;8.60;;;5.60;99.90;;;;;;4958201;28;20195;-73
2020/12/21 04:31:26;;;;;;;13.48;7.57;;;5.60;99.90;;;;;;4960194;28;20202;-73
2020/12/21 04:33:53;;;;;;;16.23;8.90;;;5.50;99.90;;;;;;4977879;28;20199;-73
2020/12/21 04:36:20;;;;;;;13.10;8.15;;;5.50;99.90;;;;;;4960240;28;20237;-74
2020/12/21 04:38:53;;;;;;;11.43;9.20;;;5.50;99.90;;;;;;4960176;28;20802;-73
2020/12/21 04:41:20;;;;;;;13.60;8.73;;;5.50;99.90;;;;;;4960465;28;20282;-74
2020/12/21 04:43:47;;;;;;;12.10;9.38;;;5.50;99.90;;;;;;4978078;28;20712;-74
2020/12/21 04:46:16;;;;;;;14.52;7.90;;;5.50;99.90;;;;;;4979081;28;20192;-73
2020/12/21 04:48:44;;;;;;;15.43;6.68;;;5.40;99.90;;;;;;4978859;28;20270;-74
2020/12/21 04:51:11;;;;;;;13.82;9.23;;;5.40;99.90;;;;;;4960713;28;20203;-74
2020/12/21 04:53:40;;;;;;;10.73;7.60;;;5.50;99.90;;;;;;4978066;28;20230;-73
2020/12/21 04:56:08;;;;;;;13.05;7.97;;;5.50;99.90;;;;;;4978072;28;20246;-73
2020/12/21 04:58:35;;;;;;;11.52;7.97;;;5.40;99.90;;;;;;4960139;28;20209;-73
2020/12/21 05:01:03;;;;;;;14.43;9.57;;;5.40;99.90;;;;;;4959825;28;20200;-72
2020/12/21 05:03:30;;;;;;;8.57;6.80;;;5.40;99.90;;;;;;4977746;28;20215;-73
2020/12/21 05:06:06;;;;;;;12.27;7.90;;;5.50;99.90;;;;;;4977477;28;20187;-74
2020/12/21 05:08:33;;;;;;;12.45;8.40;;;5.30;99.90;;;;;;4977572;28;20168;-73
2020/12/21 05:11:02;;;;;;;11.50;9.18;;;5.20;99.90;;;;;;4977219;28;20593;-73
2020/12/21 05:13:31;;;;;;;11.65;7.63;;;5.10;99.90;;;;;;4976883;28;20661;-74
2020/12/21 05:16:00;;;;;;;11.80;8.10;;;5.10;99.90;;;;;;4977100;28;20541;-73
2020/12/21 05:18:28;;;;;;;13.07;8.35;;;5.10;99.90;;;;;;4977651;28;20203;-73
2020/12/21 05:20:57;;;;;;;11.25;8.52;;;5.10;99.90;;;;;;4977512;28;20636;-73
2020/12/21 05:23:25;;;;;;;13.85;9.63;;;5.10;99.90;;;;;;4977546;28;20195;-73
2020/12/21 05:26:00;;;;;;;14.48;8.35;;;5.10;99.90;;;;;;4978126;28;20211;-74
2020/12/21 05:28:31;;;;;;;12.65;8.00;;;5.10;99.90;;;;;;4960596;28;20230;-73
2020/12/21 05:31:00;;;;;;;10.50;7.78;;;5.10;99.90;;;;;;4976726;28;20192;-73
2020/12/21 05:33:27;;;;;;;11.70;7.70;;;5.10;99.90;;;;;;4959409;28;20543;-73
2020/12/21 05:35:56;;;;;;;11.13;7.25;;;5.10;99.90;;;;;;4976789;28;20550;-73
2020/12/21 05:38:26;;;;;;;11.27;8.95;;;5.10;99.90;;;;;;4959339;28;20294;-73
2020/12/21 05:40:55;;;;;;;20.40;10.13;;;5.10;99.90;;;;;;4975509;28;20180;-75
2020/12/21 05:43:27;;;;;;;16.23;11.00;;;5.10;99.90;;;;;;4977165;28;20199;-74
2020/12/21 05:46:12;;;;;;;16.65;9.25;;;5.20;99.90;;;;;;4960169;28;20222;-73
2020/12/21 05:48:41;;;;;;;10.23;9.15;;;5.10;99.90;;;;;;4976779;28;20645;-73
2020/12/21 05:51:10;;;;;;;8.77;7.13;;;5.20;99.90;;;;;;4959758;28;20238;-73
2020/12/21 05:53:40;;;;;;;10.60;8.50;;;5.20;99.90;;;;;;4976846;28;20180;-74
2020/12/21 05:56:08;;;;;;;9.88;7.38;;;5.20;99.90;;;;;;4976300;28;20184;-74
2020/12/21 05:58:37;;;;;;;18.95;9.43;;;5.30;99.90;;;;;;4976060;28;20176;-72
2020/12/21 06:01:09;;;;;;;12.68;10.68;;;5.30;99.90;;;;;;4975789;28;20191;-74
2020/12/21 06:03:42;;;;;;;11.65;6.85;;;5.20;99.90;;;;;;4976315;28;20196;-72
2020/12/21 06:06:13;;;;;;;11.32;6.63;;;5.20;99.90;;;;;;4975314;28;20187;-72
2020/12/21 06:08:42;;;;;;;11.93;8.25;;;5.10;99.90;;;;;;4958209;28;20207;-72
2020/12/21 06:11:15;;;;;;;8.98;8.00;;;5.10;99.90;;;;;;4976227;28;20561;-71
2020/12/21 06:13:50;;;;;;;12.43;9.25;;;5.00;99.90;;;;;;4975886;28;20183;-72
2020/12/21 06:16:19;;;;;;;12.13;8.80;;;5.00;99.90;;;;;;4976410;28;20171;-73
2020/12/21 06:18:57;;;;;;;11.88;7.20;;;5.00;99.90;;;;;;4976106;28;20211;-71
2020/12/21 06:21:25;;;;;;;15.82;11.18;;;5.00;99.90;;;;;;4978469;28;20206;-71
2020/12/21 06:23:52;;;;;;;9.48;6.43;;;5.00;99.90;;;;;;4980918;28;20278;-71
2020/12/21 06:26:19;;;;;;;17.73;9.68;;;5.00;99.90;;;;;;4981931;28;20282;-72
2020/12/21 06:28:46;;;;;;;14.00;8.98;;;5.00;99.90;;;;;;4982867;28;20621;-73
2020/12/21 06:31:19;;;;;;;10.80;6.72;;;5.10;99.90;;;;;;4964553;28;20546;-73
2020/12/21 06:33:47;;;;;;;18.25;9.80;;;5.10;99.90;;;;;;4981709;28;20180;-72
2020/12/21 06:36:15;;;;;;;9.68;7.93;;;5.10;99.90;;;;;;4981701;28;20218;-73
2020/12/21 06:38:47;;;;;;;15.02;9.13;;;5.10;99.90;;;;;;4982218;28;20644;-73
2020/12/21 06:41:19;;;;;;;14.20;7.18;;;5.10;99.90;;;;;;4982269;28;20187;-72
2020/12/21 06:44:04;;;;;;;20.13;7.55;;;5.10;99.90;;;;;;4981091;28;20223;-73
2020/12/21 06:46:33;;;;;;;10.30;6.47;;;5.10;99.90;;;;;;4981406;28;20262;-72
2020/12/21 06:49:05;;;;;;;28.17;8.43;;;5.00;99.90;;;;;;4976384;28;20198;-72
2020/12/21 06:51:34;;;;;;;22.00;11.55;;;5.10;99.90;;;;;;4976053;28;20525;-72
2020/12/21 06:54:03;;;;;;;12.50;7.57;;;5.10;99.90;;;;;;4976081;28;20207;-71
2020/12/21 06:56:30;;;;;;;12.20;9.35;;;5.10;99.90;;;;;;4975757;28;20233;-72
2020/12/21 06:58:59;;;;;;;11.77;8.57;;;5.00;99.90;;;;;;4957887;28;20194;-72
2020/12/21 07:04:14;;;;;;;9.55;6.30;;;4.90;99.90;;;;;;4972538;28;20462;-46
2020/12/21 07:06:43;;;;;;;14.73;7.60;;;4.90;99.90;;;;;;4987825;28;20214;-46
2020/12/21 07:09:11;;;;;;;11.68;7.50;;;4.80;99.90;;;;;;4993342;28;20191;-50
2020/12/21 07:11:39;;;;;;;9.48;7.25;;;4.80;99.90;;;;;;4992816;28;20202;-46
2020/12/21 07:14:07;;;;;;;13.82;8.65;;;4.70;99.90;;;;;;4973748;28;20231;-47
2020/12/21 07:16:34;;;;;;;21.65;8.98;;;4.60;99.90;;;;;;4973542;28;20211;-47
2020/12/21 07:19:01;;;;;;;10.55;6.88;;;4.50;99.90;;;;;;4973696;28;20187;-52
2020/12/21 07:21:31;;;;;;;9.60;6.70;;;4.50;99.90;;;;;;4974039;28;20207;-46
2020/12/21 07:23:58;;;;;;;13.60;6.18;;;4.50;99.90;;;;;;4974940;28;20204;-51
2020/12/21 07:26:27;;;;;;;15.90;8.57;;;4.50;99.90;;;;;;4992908;28;20215;-47
2020/12/21 07:28:54;;;;;;;9.02;6.97;;;4.50;99.90;;;;;;4993185;28;20179;-52
2020/12/21 07:31:22;;;;;;;15.30;7.63;;;4.60;99.90;;;;;;4992817;28;20227;-54
2020/12/21 07:33:54;;;;;;;11.60;7.30;;;4.60;99.90;;;;;;4993210;28;20585;-53
2020/12/21 07:36:23;;;;;;;9.93;6.85;;;4.70;99.90;;;;;;4992271;28;20625;-52
2020/12/21 07:38:51;;;;;;;15.52;8.35;;;4.70;99.90;;;;;;4974120;28;20179;-51
2020/12/21 07:41:23;;;;;;;13.27;7.30;;;4.60;99.90;;;;;;4974113;28;20668;-54
2020/12/21 07:44:02;;;;;;;11.30;7.13;;;4.60;99.90;;;;;;4973383;28;20632;-52
2020/12/21 07:46:44;;;;;;;11.25;7.18;;;4.60;99.90;;;;;;4973937;28;20222;-50
2020/12/21 07:49:13;;;;;;;9.55;8.15;;;4.50;99.90;;;;;;4979039;28;20197;-51
2020/12/21 07:51:45;;;;;;;6.93;6.32;;;4.50;99.90;;;;;;4975491;28;20202;-52
2020/12/21 07:54:14;;;;;;;11.95;7.78;;;4.50;99.90;;;;;;4993200;28;20175;-49
2020/12/21 07:56:42;;;;;;;13.50;8.98;;;4.60;99.90;;;;;;4992844;28;20217;-50
2020/12/21 07:59:17;;;;;;;11.95;8.52;;;4.60;99.90;;;;;;4992953;28;20206;-49
2020/12/21 08:01:46;;;;;;;11.13;7.70;;;4.60;99.90;;;;;;4967481;28;724401;-48
2020/12/21 08:04:18;;;;;;;28.02;10.02;;;4.70;99.90;;;;;;4992949;28;20191;-52
2020/12/21 08:06:46;;;;;;;10.63;7.80;;;4.70;99.90;;;;;;4994321;28;20218;-49
2020/12/21 08:09:14;;;;;;;8.30;5.60;;;4.80;99.90;;;;;;4993337;28;20556;-54
2020/12/21 08:11:43;;;;;;;12.15;8.32;;;4.80;99.90;;;;;;4993221;28;20175;-48
2020/12/21 08:14:15;;;;;;;8.18;5.80;;;4.90;99.90;;;;;;4993105;28;20567;-49
2020/12/21 08:16:43;;;;;;;16.02;9.50;;;5.00;99.90;;;;;;4992810;28;20305;-53
2020/12/21 08:19:13;;;;;;;13.10;8.07;;;5.20;99.90;;;;;;4992957;28;20297;-51
2020/12/21 08:21:41;;;;;;;13.57;7.05;;;5.40;99.90;;;;;;4992613;28;20691;-46
2020/12/21 08:24:10;;;;;;;10.43;7.03;;;5.40;99.90;;;;;;4992964;28;20222;-49
2020/12/21 08:26:40;;;;;;;11.30;7.32;;;5.30;99.90;;;;;;4993027;28;20218;-50
2020/12/21 08:29:08;;;;;;;8.82;7.43;;;5.30;99.90;;;;;;4992998;28;20260;-48
2020/12/21 08:31:43;;;;;;;16.20;8.23;;;5.40;99.90;;;;;;4992750;28;20211;-48
2020/12/21 08:34:15;;;;;;;8.95;6.50;;;5.40;99.90;;;;;;4992615;28;20691;-50
2020/12/21 08:36:42;;;;;;;9.10;6.47;;;5.40;99.90;;;;;;4992580;28;20217;-49
2020/12/21 08:39:13;;;;;;;12.70;7.47;;;5.40;99.90;;;;;;4992810;28;20183;-44
2020/12/21 08:41:45;;;;;;;12.30;7.40;;;5.40;99.90;;;;;;4974996;28;20282;-51
2020/12/21 08:44:17;;;;;;;8.77;7.70;;;5.40;99.90;;;;;;4992628;28;20234;-49
2020/12/21 08:46:50;;;;;;;8.95;6.50;;;5.40;99.90;;;;;;4992748;28;20212;-48
2020/12/21 08:49:18;;;;;;;10.40;7.22;;;5.40;99.90;;;;;;4992738;28;20241;-49
2020/12/21 08:51:45;;;;;;;11.85;5.72;;;5.30;99.90;;;;;;4992541;28;20194;-52
2020/12/21 08:54:12;;;;;;;9.52;6.90;;;5.20;99.90;;;;;;4992232;28;20186;-48
2020/12/21 08:56:39;;;;;;;7.38;5.28;;;5.10;99.90;;;;;;4992518;28;20765;-49
2020/12/21 08:59:07;;;;;;;7.55;6.05;;;5.00;99.90;;;;;;4992852;28;20587;-46
2020/12/21 09:01:40;;;;;;;8.27;6.90;;;5.00;99.90;;;;;;4992689;28;20187;-55
2020/12/21 09:04:07;;;;;;;9.55;5.57;;;5.00;99.90;;;;;;5002757;28;20216;-48
2020/12/21 09:06:34;;;;;;;9.82;6.75;;;5.00;99.90;;;;;;4997514;28;20214;-47
2020/12/21 09:09:01;;;;;;;14.35;10.32;;;5.00;99.90;;;;;;4992366;28;20197;-51
2020/12/21 09:11:29;;;;;;;11.48;7.03;;;5.10;99.90;;;;;;4992380;28;20198;-51
2020/12/21 09:13:56;;;;;;;10.98;7.30;;;5.10;99.90;;;;;;4993125;28;20655;-47
2020/12/21 09:16:26;;;;;;;16.67;5.68;;;5.10;99.90;;;;;;4996037;28;20207;-50
2020/12/21 09:18:55;;;;;;;9.70;7.43;;;5.20;99.90;;;;;;4978901;28;20191;-52
2020/12/21 09:21:23;;;;;;;8.20;6.22;;;5.30;99.90;;;;;;4995787;28;20191;-50
2020/12/21 09:23:51;;;;;;;19.60;7.20;;;5.40;99.90;;;;;;4995968;28;20222;-52
2020/12/21 09:26:19;;;;;;;11.32;8.57;;;5.40;99.90;;;;;;4996093;28;20219;-46
2020/12/21 09:28:48;;;;;;;10.88;7.47;;;5.50;99.90;;;;;;4979969;28;20219;-49
2020/12/21 09:31:16;;;;;;;13.57;9.35;;;5.50;99.90;;;;;;4976547;28;20644;-49
2020/12/21 09:33:47;;;;;;;11.60;6.20;;;5.60;99.90;;;;;;4976426;28;20262;-47
2020/12/21 09:36:15;;;;;;;7.88;6.65;;;5.60;99.90;;;;;;4976458;28;20217;-50
2020/12/21 09:38:43;;;;;;;12.00;7.65;;;5.70;99.90;;;;;;4976459;28;20219;-52
2020/12/21 09:41:16;;;;;;;11.07;7.93;;;5.70;99.90;;;;;;4974905;28;20324;-52
2020/12/21 09:43:44;;;;;;;11.40;7.00;;;5.80;99.90;;;;;;4976087;28;20234;-52
2020/12/21 09:46:11;;;;;;;10.38;6.88;;;5.80;99.90;;;;;;4976021;28;20220;-51
2020/12/21 09:48:39;;;;;;;9.55;7.78;;;5.90;99.90;;;;;;4976351;28;20176;-46
2020/12/21 09:51:07;;;;;;;9.48;7.85;;;6.00;99.90;;;;;;4975887;28;20212;-47
2020/12/21 09:53:34;;;;;;;7.97;6.38;;;6.00;99.90;;;;;;4975965;28;20195;-50
2020/12/21 09:56:01;;;;;;;12.70;7.53;;;6.10;99.90;;;;;;4975823;28;20700;-49
2020/12/21 09:58:29;;;;;;;13.95;7.82;;;6.00;99.90;;;;;;4976218;28;20637;-51
2020/12/21 10:00:57;;;;;;;9.90;7.47;;;6.00;99.90;;;;;;4975822;28;20179;-47
2020/12/21 10:03:24;;;;;;;12.95;8.18;;;6.00;99.90;;;;;;4980852;28;20194;-50
2020/12/21 10:05:51;;;;;;;11.45;6.70;;;6.00;99.90;;;;;;4995284;28;20601;-50
2020/12/21 10:08:20;;;;;;;15.30;7.28;;;6.10;99.90;;;;;;4995663;28;20191;-48
2020/12/21 10:10:48;;;;;;;12.10;7.18;;;6.10;99.90;;;;;;4994514;28;20443;-48
2020/12/21 10:13:15;;;;;;;10.75;6.93;;;6.20;99.90;;;;;;4975839;28;20182;-46
2020/12/21 10:15:44;;;;;;;10.70;5.80;;;6.20;99.90;;;;;;4975570;28;20207;-53
2020/12/21 10:18:11;;;;;;;12.27;7.72;;;6.30;99.90;;;;;;4988504;28;20618;-51
2020/12/21 10:20:39;;;;;;;11.20;7.88;;;6.30;99.90;;;;;;4995009;28;20462;-50
2020/12/21 10:23:06;;;;;;;14.50;7.75;;;6.40;99.90;;;;;;4995201;28;20209;-49
2020/12/21 10:25:34;;;;;;;8.65;5.55;;;6.50;99.90;;;;;;4993859;28;20214;-48
2020/12/21 10:28:01;;;;;;;8.30;6.22;;;6.50;99.90;;;;;;4994493;28;20570;-48
2020/12/21 10:30:30;;;;;;;7.18;5.22;;;6.50;99.90;;;;;;4994202;28;20249;-51
2020/12/21 10:32:57;;;;;;;7.95;5.93;;;6.70;99.90;;;;;;4994284;28;20207;-48
2020/12/21 10:35:24;;;;;;;4.40;3.47;;;6.70;99.90;;;;;;4994351;28;20771;-47
2020/12/21 10:37:51;;;;;;;8.63;5.88;;;6.70;99.90;;;;;;4994555;28;20210;-44
2020/12/21 10:40:18;;;;;;;13.45;6.57;;;6.80;99.90;;;;;;4994315;28;20250;-47
2020/12/21 10:42:46;;;;;;;9.23;6.70;;;6.80;99.90;;;;;;4983258;28;20191;-47
2020/12/21 10:45:13;;;;;;;9.25;4.72;;;6.90;99.90;;;;;;4974730;28;20647;-50
2020/12/21 10:47:41;;;;;;;8.75;5.78;;;6.90;99.90;;;;;;4975532;28;20179;-52
2020/12/21 10:50:08;;;;;;;10.40;5.95;;;6.90;99.90;;;;;;4974146;28;20672;-48
2020/12/21 10:52:35;;;;;;;8.27;5.50;;;7.00;99.90;;;;;;4975286;28;20188;-46
2020/12/21 10:55:03;;;;;;;8.00;5.28;;;7.00;99.90;;;;;;4975203;28;20187;-49
2020/12/21 10:57:31;;;;;;;6.22;4.90;;;7.00;99.90;;;;;;4975255;28;20278;-47
2020/12/21 10:59:58;;;;;;;5.03;4.15;;;7.00;99.90;;;;;;4974986;28;20560;-49
2020/12/21 11:02:25;;;;;;;6.85;5.43;;;7.10;99.90;;;;;;4994047;28;20205;-51
2020/12/21 11:04:53;;;;;;;7.90;6.70;;;7.20;99.90;;;;;;4994445;28;20215;-47
2020/12/21 11:07:20;;;;;;;9.93;6.00;;;7.30;99.90;;;;;;4976742;28;20206;-50
2020/12/21 11:09:59;;;;;;;7.63;4.20;;;7.30;99.90;;;;;;4995248;28;20194;-50
2020/12/21 11:12:26;;;;;;;13.57;8.43;;;7.40;99.90;;;;;;4994318;28;20198;-47
2020/12/21 11:14:54;;;;;;;8.13;4.47;;;7.50;99.90;;;;;;4994096;28;20179;-51
2020/12/21 11:17:21;;;;;;;6.65;5.35;;;7.50;99.90;;;;;;4993547;28;20217;-49
2020/12/21 11:19:48;;;;;;;6.97;5.15;;;7.50;99.90;;;;;;4975898;28;20191;-52
2020/12/21 11:22:16;;;;;;;6.57;4.70;;;7.50;99.90;;;;;;4994166;28;20695;-48
2020/12/21 11:24:43;;;;;;;5.35;4.85;;;7.50;99.90;;;;;;4993329;28;20206;-52
2020/12/21 11:27:10;;;;;;;10.65;5.57;;;7.60;99.90;;;;;;4975583;28;20269;-48
2020/12/21 11:29:37;;;;;;;9.15;5.25;;;7.70;99.90;;;;;;4993487;28;20225;-49
2020/12/21 11:32:21;;;;;;;5.90;4.97;;;7.70;99.90;;;;;;4993025;28;20212;-46
2020/12/21 11:34:48;;;;;;;6.57;4.15;;;7.70;99.90;;;;;;4993564;28;20540;-50
2020/12/21 11:37:15;;;;;;;4.90;4.32;;;7.70;99.90;;;;;;4992813;28;20265;-49
2020/12/21 11:39:42;;;;;;;9.90;6.03;;;7.70;99.90;;;;;;4993196;28;20269;-47
2020/12/21 11:42:10;;;;;;;7.22;4.22;;;7.70;99.90;;;;;;4993669;28;20262;-47
2020/12/21 11:44:37;;;;;;;8.73;4.35;;;7.70;99.90;;;;;;4986556;28;20203;-46
2020/12/21 11:47:09;;;;;;;6.40;3.97;;;7.70;99.90;;;;;;4995670;28;20219;-50
2020/12/21 11:49:37;;;;;;;7.78;5.40;;;7.80;99.90;;;;;;4982248;28;20183;-47
2020/12/21 11:52:05;;;;;;;13.30;5.45;;;7.90;99.90;;;;;;4973456;28;20182;-50
2020/12/21 11:54:32;;;;;;;8.25;4.95;;;7.90;99.90;;;;;;4973465;28;20178;-50
2020/12/21 11:56:59;;;;;;;10.75;4.63;;;7.80;1.00;;;;;;4986980;28;20223;-50
2020/12/21 11:59:27;;;;;;;6.60;4.65;;;7.70;1.00;;;;;;5000952;28;20202;-43
2020/12/21 12:01:56;;;;;;;7.40;5.30;;;7.60;1.00;;;;;;4994022;28;20205;-53
2020/12/21 12:04:23;;;;;;;6.22;4.40;;;7.50;1.00;;;;;;4992679;28;20199;-50
2020/12/21 12:06:53;;;;;;;4.70;4.13;;;7.50;1.00;;;;;;4992866;28;20306;-49
2020/12/21 12:09:24;;;;;;;8.60;4.40;;;7.40;59.60;;;;;;5034957;23;20223;-47
2020/12/21 12:11:51;;;;;;;4.97;4.05;;;7.30;99.90;;;;;;4956192;28;20195;-46
2020/12/21 12:14:18;;;;;;;5.85;4.60;;;7.20;99.90;;;;;;4974066;28;20506;-46
2020/12/21 12:16:45;;;;;;;8.43;5.13;;;7.10;99.90;;;;;;4984715;28;20607;-46
2020/12/21 12:19:13;;;;;;;6.05;3.90;;;7.00;99.90;;;;;;4973737;28;20179;-48
2020/12/21 12:21:40;;;;;;;4.50;3.45;;;6.80;1.00;;;;;;4973502;28;20653;-48
2020/12/21 12:24:08;;;;;;;6.20;4.35;;;6.80;99.90;;;;;;4956121;28;20242;-50
2020/12/21 12:26:35;;;;;;;6.55;3.88;;;6.90;99.90;;;;;;4973164;28;20211;-50
2020/12/21 12:29:03;;;;;;;6.45;4.32;;;6.90;99.90;;;;;;4973834;28;20266;-50
2020/12/21 12:31:30;;;;;;;8.55;5.07;;;6.80;99.90;;;;;;4973967;28;20566;-47
2020/12/21 12:33:57;;;;;;;6.57;4.70;;;6.80;99.90;;;;;;4973583;28;20179;-49
2020/12/21 12:36:26;;;;;;;6.75;5.18;;;6.80;99.90;;;;;;4973559;28;20207;-44
2020/12/21 12:38:54;;;;;;;6.28;4.30;;;6.80;99.90;;;;;;4973844;28;20183;-42
2020/12/21 12:41:22;;;;;;;10.80;6.20;;;6.70;99.90;;;;;;4973487;28;20522;-44
2020/12/21 12:43:49;;;;;;;7.60;3.85;;;6.70;99.90;;;;;;4973151;28;20243;-48
2020/12/21 12:46:17;;;;;;;7.05;4.28;;;6.70;99.90;;;;;;4973221;28;20215;-52
2020/12/21 12:48:44;;;;;;;9.43;4.70;;;6.70;99.90;;;;;;4974013;28;20239;-45
2020/12/21 12:51:11;;;;;;;9.45;4.75;;;6.70;99.90;;;;;;4977146;28;20262;-45
2020/12/21 12:53:38;;;;;;;9.02;5.18;;;6.70;99.90;;;;;;4977588;28;20172;-52
2020/12/21 12:56:09;;;;;;;5.88;5.15;;;6.80;99.90;;;;;;4976453;28;20687;-48
2020/12/21 12:58:37;;;;;;;8.07;4.85;;;6.80;99.90;;;;;;4976564;28;20234;-50
2020/12/21 13:01:06;;;;;;;4.85;3.80;;;6.80;99.90;;;;;;4976227;28;20290;-46
2020/12/21 13:03:33;;;;;;;6.18;4.75;;;6.90;99.90;;;;;;4977107;28;20202;-49
2020/12/21 13:06:01;;;;;;;8.75;4.45;;;6.90;99.90;;;;;;4976771;28;20215;-46